Terminal Aerodrome Forecast
Issued by NWS

Home | Current Version | Previous Version | Graphics & Text | Print | Product List | Glossary On
Versions: 1 2 3 4 5 6 7 8 9 10 11 12 13 14 15 16 17 18 19 20 21
000
FTUS43 KICT 300700 AAA
TAFHUT
TAF AMD
KHUT 300716Z 3007/3106 VRB05KT 6SM BR SKC
      TEMPO 3008/3012 3SM BR
     FM310000 18010KT P6SM SKC=

USA.gov is the U.S. government's official web portal to all federal, state and local government web resources and services.